createdAt,value
2018-11-29T00:00:40.868Z,52.60
2018-11-29T00:03:38.115Z,52.50
2018-11-29T00:06:51.995Z,52.40
2018-11-29T00:09:52.023Z,52.70
2018-11-29T00:12:49.572Z,52.70
2018-11-29T00:15:47.425Z,52.70
2018-11-29T00:18:44.530Z,52.70
2018-11-29T00:21:41.576Z,52.60
2018-11-29T00:24:39.163Z,52.60
2018-11-29T00:27:37.931Z,52.70
2018-11-29T00:30:35.066Z,52.70
2018-11-29T00:33:32.777Z,52.70
2018-11-29T00:36:29.954Z,52.60
2018-11-29T00:39:27.617Z,52.60
2018-11-29T00:42:24.736Z,52.80
2018-11-29T00:45:28.574Z,52.70
2018-11-29T00:48:24.603Z,52.80
2018-11-29T00:51:21.237Z,52.70
2018-11-29T00:54:18.078Z,52.90
2018-11-29T00:57:14.794Z,52.00
2018-11-29T01:00:20.996Z,52.40
2018-11-29T01:03:17.339Z,52.30
2018-11-29T01:06:13.976Z,52.20
2018-11-29T01:09:13.132Z,52.10
2018-11-29T01:12:12.277Z,52.20
2018-11-29T01:15:09.144Z,52.10
2018-11-29T01:18:08.532Z,52.20
2018-11-29T01:21:04.838Z,52.00
2018-11-29T01:24:01.759Z,52.10
2018-11-29T01:26:58.116Z,52.20
2018-11-29T01:29:57.432Z,52.20
2018-11-29T01:32:53.693Z,52.20
2018-11-29T01:35:50.520Z,52.20
2018-11-29T01:38:49.191Z,52.20
2018-11-29T01:41:45.899Z,52.20
2018-11-29T01:44:42.639Z,52.20
2018-11-29T01:47:40.115Z,52.30
2018-11-29T01:50:36.492Z,52.30
2018-11-29T01:53:35.708Z,52.40
2018-11-29T01:56:32.515Z,52.20
2018-11-29T01:59:29.825Z,52.10
2018-11-29T02:02:27.073Z,52.00
2018-11-29T02:05:23.826Z,51.60
2018-11-29T02:08:23.877Z,51.00
2018-11-29T02:11:19.999Z,51.60
2018-11-29T02:14:17.135Z,51.40
2018-11-29T02:17:13.863Z,51.50
2018-11-29T02:20:14.527Z,51.60
2018-11-29T02:23:11.009Z,51.60
2018-11-29T02:26:08.953Z,51.70
2018-11-29T02:29:06.597Z,51.70
2018-11-29T02:32:03.454Z,51.80
2018-11-29T02:35:00.057Z,51.80
2018-11-29T02:37:56.740Z,51.80
2018-11-29T02:40:55.164Z,51.70
2018-11-29T02:43:52.295Z,51.70
2018-11-29T02:46:49.063Z,51.60
2018-11-29T02:49:46.139Z,51.70
2018-11-29T02:52:43.128Z,51.80
2018-11-29T02:55:40.485Z,51.90
2018-11-29T02:58:38.109Z,51.90
2018-11-29T03:01:39.232Z,51.80
2018-11-29T03:04:37.338Z,51.80
2018-11-29T03:07:35.252Z,51.80
2018-11-29T03:10:33.391Z,51.70
2018-11-29T03:13:31.908Z,51.70
2018-11-29T03:16:29.587Z,51.90
2018-11-29T03:19:28.390Z,51.90
2018-11-29T03:22:26.449Z,51.90
2018-11-29T03:25:23.962Z,57.10
2018-11-29T03:28:20.383Z,53.20
2018-11-29T03:31:18.736Z,52.80
2018-11-29T03:34:16.565Z,52.80
2018-11-29T03:37:14.063Z,52.60
2018-11-29T03:40:18.822Z,52.60
2018-11-29T03:43:33.039Z,52.50
2018-11-29T03:46:35.690Z,52.40
2018-11-29T03:49:35.848Z,52.80
2018-11-29T03:52:33.232Z,53.00
2018-11-29T03:55:30.648Z,52.70
2018-11-29T03:58:28.031Z,55.10
2018-11-29T04:01:25.763Z,59.40
2018-11-29T04:04:23.530Z,61.70
2018-11-29T04:07:21.515Z,60.10
2018-11-29T04:10:19.950Z,59.80
2018-11-29T04:13:18.108Z,58.90
2018-11-29T04:16:15.696Z,58.40
2018-11-29T04:19:13.881Z,57.60
2018-11-29T04:22:11.440Z,57.40
2018-11-29T04:25:09.924Z,57.00
2018-11-29T04:28:08.983Z,56.60
2018-11-29T04:31:06.528Z,56.40
2018-11-29T04:34:04.170Z,56.10
2018-11-29T04:37:02.450Z,55.90
2018-11-29T04:40:00.488Z,55.70
2018-11-29T04:42:58.594Z,55.50
2018-11-29T04:46:36.126Z,55.30
2018-11-29T04:49:33.949Z,55.00
2018-11-29T04:52:31.860Z,54.90
2018-11-29T04:55:30.024Z,54.60
2018-11-29T04:58:27.867Z,54.60
2018-11-29T05:01:26.935Z,54.60
2018-11-29T05:08:09.612Z,54.50
2018-11-29T05:11:06.770Z,54.40
2018-11-29T05:14:07.188Z,54.30
2018-11-29T05:17:05.155Z,54.10
2018-11-29T05:20:03.027Z,54.00
2018-11-29T05:23:03.655Z,54.00
2018-11-29T05:26:01.618Z,53.60
2018-11-29T05:29:01.855Z,53.40
2018-11-29T05:32:00.329Z,53.50
2018-11-29T05:35:01.272Z,53.40
2018-11-29T05:37:58.216Z,53.30
2018-11-29T05:40:55.433Z,53.40
2018-11-29T05:44:01.345Z,53.10
2018-11-29T05:46:57.366Z,52.40
2018-11-29T05:49:54.814Z,52.90
2018-11-29T05:52:52.159Z,52.90
2018-11-29T05:55:50.070Z,52.70
2018-11-29T05:59:05.257Z,53.00
2018-11-29T06:02:05.100Z,52.50
2018-11-29T06:05:31.154Z,52.50
2018-11-29T06:08:45.453Z,52.70
2018-11-29T06:11:44.319Z,52.10
2018-11-29T06:14:44.069Z,51.80
2018-11-29T06:17:49.298Z,51.50
2018-11-29T06:20:47.590Z,50.80
2018-11-29T06:24:53.322Z,50.90
2018-11-29T06:36:02.161Z,51.30
2018-11-29T06:38:59.435Z,51.30
2018-11-29T06:41:58.747Z,51.30
2018-11-29T06:45:02.140Z,51.10
2018-11-29T06:49:05.382Z,51.00
2018-11-29T06:51:31.405Z,51.00
2018-11-29T06:54:29.972Z,50.90
2018-11-29T06:57:32.488Z,50.80
2018-11-29T07:00:34.278Z,50.70
2018-11-29T07:03:32.381Z,50.60
2018-11-29T07:06:29.133Z,50.50
2018-11-29T07:09:31.374Z,50.40
2018-11-29T07:12:30.621Z,50.30
2018-11-29T07:15:31.873Z,50.20
2018-11-29T07:18:30.234Z,50.20
2018-11-29T07:22:08.817Z,50.10
2018-11-29T07:25:05.293Z,50.20
2018-11-29T07:28:24.254Z,50.10
2018-11-29T07:31:26.984Z,48.70
2018-11-29T07:38:03.293Z,48.20
2018-11-29T07:41:02.109Z,48.20
2018-11-29T07:43:59.285Z,48.20
2018-11-29T07:47:25.181Z,48.30
2018-11-29T07:53:52.358Z,48.80
2018-11-29T07:57:03.846Z,48.20
2018-11-29T08:00:05.482Z,48.10
2018-11-29T08:03:17.113Z,47.40
2018-11-29T08:06:05.201Z,48.00
2018-11-29T08:09:13.804Z,47.10
2018-11-29T08:12:11.399Z,47.50
2018-11-29T08:15:50.375Z,47.30
2018-11-29T08:18:50.552Z,47.10
2018-11-29T08:21:54.276Z,47.30
2018-11-29T08:24:53.284Z,48.00
2018-11-29T08:27:54.552Z,47.30
2018-11-29T08:30:52.064Z,47.00
2018-11-29T08:33:57.318Z,46.70
2018-11-29T08:36:56.423Z,48.20
2018-11-29T08:39:57.343Z,48.30
2018-11-29T08:42:55.245Z,48.70
2018-11-29T08:45:52.871Z,48.70
2018-11-29T08:48:52.064Z,48.70
2018-11-29T08:51:51.245Z,48.90
2018-11-29T08:55:32.981Z,49.10
2018-11-29T08:58:09.374Z,49.10
2018-11-29T09:01:07.583Z,49.10
2018-11-29T09:04:09.351Z,49.20
2018-11-29T09:07:07.835Z,49.20
2018-11-29T09:10:10.268Z,49.20
2018-11-29T09:13:05.287Z,49.20
2018-11-29T09:16:13.319Z,49.20
2018-11-29T09:19:27.083Z,49.20
2018-11-29T09:22:34.603Z,49.20
2018-11-29T09:25:51.055Z,49.20
2018-11-29T09:28:52.587Z,49.10
2018-11-29T09:31:54.931Z,49.00
2018-11-29T09:34:54.941Z,48.90
2018-11-29T09:37:53.054Z,48.70
2018-11-29T09:40:52.664Z,48.00
2018-11-29T09:43:51.181Z,47.40
2018-11-29T09:46:49.537Z,47.40
2018-11-29T09:50:00.315Z,46.90
2018-11-29T09:53:01.472Z,46.80
2018-11-29T09:56:03.037Z,46.80
2018-11-29T09:59:02.149Z,46.80
2018-11-29T10:02:04.219Z,46.80
2018-11-29T10:05:05.320Z,47.30
2018-11-29T10:08:11.701Z,47.50
2018-11-29T10:11:04.965Z,47.50
2018-11-29T10:14:03.324Z,47.00
2018-11-29T10:17:01.444Z,47.20
2018-11-29T10:20:03.448Z,47.70
2018-11-29T10:23:01.021Z,48.40
2018-11-29T10:25:59.266Z,48.30
2018-11-29T10:28:58.794Z,48.60
2018-11-29T10:31:56.940Z,48.60
2018-11-29T10:34:55.117Z,48.60
2018-11-29T10:37:53.589Z,48.90
2018-11-29T10:40:52.051Z,48.80
2018-11-29T10:47:52.176Z,48.80
2018-11-29T10:50:46.064Z,49.00
2018-11-29T10:53:44.551Z,49.00
2018-11-29T10:56:45.100Z,49.00
2018-11-29T10:59:44.381Z,49.10
2018-11-29T11:03:03.708Z,49.10
2018-11-29T11:06:02.518Z,49.30
2018-11-29T11:09:01.064Z,49.30
2018-11-29T11:12:01.261Z,49.40
2018-11-29T11:15:00.455Z,49.40
2018-11-29T11:18:02.649Z,49.40
2018-11-29T11:21:28.101Z,49.50
2018-11-29T11:24:28.790Z,49.40
2018-11-29T11:27:28.501Z,49.60
2018-11-29T11:30:30.915Z,49.70
2018-11-29T11:33:26.851Z,49.70
2018-11-29T11:36:28.876Z,49.80
2018-11-29T11:39:27.755Z,49.90
2018-11-29T11:42:27.627Z,50.00
2018-11-29T11:45:26.540Z,50.00
2018-11-29T11:48:24.623Z,50.50
2018-11-29T11:51:25.433Z,50.80
2018-11-29T11:54:23.297Z,51.10
2018-11-29T11:57:21.221Z,51.20
2018-11-29T12:00:21.341Z,51.50
2018-11-29T12:03:22.852Z,51.60
2018-11-29T12:06:27.108Z,51.70
2018-11-29T12:09:30.980Z,52.10
2018-11-29T12:12:27.378Z,52.30
2018-11-29T12:15:26.137Z,52.40
2018-11-29T12:18:26.088Z,52.70
2018-11-29T12:21:26.206Z,53.00
2018-11-29T12:24:27.852Z,53.10
2018-11-29T12:27:28.388Z,53.20
2018-11-29T12:30:34.326Z,53.30
2018-11-29T12:33:33.171Z,53.40
2018-11-29T12:36:32.328Z,53.10
2018-11-29T12:39:31.776Z,53.30
2018-11-29T12:42:30.853Z,53.20
2018-11-29T12:45:29.500Z,53.90
2018-11-29T12:48:29.040Z,54.00
2018-11-29T12:51:27.970Z,53.40
2018-11-29T12:54:28.042Z,53.70
2018-11-29T12:57:26.424Z,53.60
2018-11-29T13:00:25.768Z,53.60
2018-11-29T13:03:23.917Z,53.50
2018-11-29T13:06:23.436Z,53.20
2018-11-29T13:09:22.732Z,53.20
2018-11-29T13:12:21.553Z,53.20
2018-11-29T13:15:32.787Z,53.20
2018-11-29T13:18:34.220Z,53.00
2018-11-29T13:21:32.589Z,52.90
2018-11-29T13:24:30.823Z,53.00
2018-11-29T13:27:29.537Z,52.80
2018-11-29T13:30:30.906Z,52.80
2018-11-29T13:33:28.649Z,52.70
2018-11-29T13:36:26.612Z,52.70
2018-11-29T13:39:24.726Z,52.60
2018-11-29T13:42:22.700Z,52.60
2018-11-29T13:45:21.089Z,52.50
2018-11-29T13:48:22.503Z,52.50
2018-11-29T13:51:20.719Z,52.30
2018-11-29T13:54:18.681Z,52.50
2018-11-29T13:57:19.592Z,52.40
2018-11-29T14:00:25.249Z,52.50
2018-11-29T14:03:23.907Z,52.40
2018-11-29T14:06:22.133Z,52.30
2018-11-29T14:09:24.048Z,52.40
2018-11-29T14:12:17.170Z,52.40
2018-11-29T14:15:25.985Z,52.40
2018-11-29T14:18:23.459Z,52.40
2018-11-29T14:21:21.292Z,52.10
2018-11-29T14:24:19.467Z,52.50
2018-11-29T14:27:17.669Z,52.30
2018-11-29T14:30:40.058Z,52.30
2018-11-29T14:33:38.000Z,52.30
2018-11-29T14:36:36.301Z,52.30
2018-11-29T14:39:34.706Z,52.20
2018-11-29T14:42:32.838Z,52.20
2018-11-29T14:45:31.612Z,52.10
2018-11-29T14:48:30.553Z,52.20
2018-11-29T14:51:28.568Z,52.10
2018-11-29T14:54:26.408Z,52.10
2018-11-29T14:57:25.114Z,52.10
2018-11-29T15:00:22.993Z,52.10
2018-11-29T15:03:28.132Z,52.10
2018-11-29T15:06:26.779Z,52.20
2018-11-29T15:09:24.788Z,52.20
2018-11-29T15:12:22.766Z,52.10
2018-11-29T15:15:20.904Z,52.10
2018-11-29T15:18:19.654Z,52.10
2018-11-29T15:21:20.652Z,52.00
2018-11-29T15:24:20.264Z,52.10
2018-11-29T15:27:18.487Z,52.00
2018-11-29T15:30:23.279Z,52.00
2018-11-29T15:33:20.741Z,52.00
2018-11-29T15:36:18.548Z,52.00
2018-11-29T15:39:17.766Z,52.10
2018-11-29T15:42:15.786Z,51.90
2018-11-29T15:45:16.881Z,51.80
2018-11-29T15:48:17.052Z,51.80
2018-11-29T15:51:15.291Z,52.00
2018-11-29T15:54:13.487Z,51.80
2018-11-29T15:57:13.185Z,51.90
2018-11-29T16:00:13.510Z,51.90
2018-11-29T16:03:18.149Z,52.00
2018-11-29T16:06:21.382Z,52.00
2018-11-29T16:09:32.244Z,52.00
2018-11-29T16:12:35.707Z,52.10
2018-11-29T16:15:36.297Z,52.00
2018-11-29T16:18:36.303Z,52.00
2018-11-29T16:21:35.258Z,52.00
2018-11-29T16:24:33.279Z,52.00
2018-11-29T16:27:31.732Z,51.70
2018-11-29T16:30:41.967Z,51.90
2018-11-29T16:33:45.285Z,51.80
2018-11-29T16:36:50.952Z,51.90
2018-11-29T16:39:47.668Z,51.80
2018-11-29T16:42:42.379Z,51.80
2018-11-29T16:45:49.067Z,51.90
2018-11-29T16:48:48.237Z,51.80
2018-11-29T16:51:52.464Z,51.80
2018-11-29T16:54:48.053Z,51.90
2018-11-29T16:57:51.636Z,52.00
2018-11-29T17:00:50.299Z,52.00
2018-11-29T17:03:57.803Z,51.80
2018-11-29T17:06:52.944Z,51.80
2018-11-29T17:09:55.696Z,51.70
2018-11-29T17:12:55.196Z,51.80
2018-11-29T17:15:54.432Z,51.70
2018-11-29T17:18:54.938Z,51.80
2018-11-29T17:21:53.218Z,51.70
2018-11-29T17:24:50.745Z,51.80
2018-11-29T17:27:49.524Z,51.80
2018-11-29T17:30:51.121Z,51.80
2018-11-29T17:33:48.435Z,52.00
2018-11-29T17:36:46.502Z,51.80
2018-11-29T17:39:44.191Z,51.80
2018-11-29T17:42:42.619Z,51.90
2018-11-29T17:45:43.448Z,51.80
2018-11-29T17:48:43.464Z,51.90
2018-11-29T17:51:40.902Z,51.80
2018-11-29T17:54:37.962Z,51.80
2018-11-29T17:57:36.873Z,51.80
2018-11-29T18:00:40.553Z,51.80
2018-11-29T18:03:37.762Z,51.80
2018-11-29T18:06:35.087Z,51.80
2018-11-29T18:09:31.906Z,51.80
2018-11-29T18:12:29.590Z,51.80
2018-11-29T18:15:31.837Z,51.80
2018-11-29T18:18:29.219Z,51.70
2018-11-29T18:21:29.156Z,51.80
2018-11-29T18:24:29.881Z,51.70
2018-11-29T18:27:26.850Z,51.70
2018-11-29T18:30:25.553Z,51.70
2018-11-29T18:33:22.900Z,51.80
2018-11-29T18:36:24.420Z,51.80
2018-11-29T18:39:18.418Z,51.80
2018-11-29T18:42:17.870Z,51.80
2018-11-29T18:45:24.791Z,51.80
2018-11-29T18:48:21.896Z,51.80
2018-11-29T18:51:19.269Z,51.80
2018-11-29T18:54:16.291Z,52.00
2018-11-29T18:57:13.966Z,51.90
2018-11-29T19:00:13.488Z,51.80
2018-11-29T19:03:11.616Z,51.80
2018-11-29T19:06:09.615Z,52.00
2018-11-29T19:09:12.024Z,52.00
2018-11-29T19:12:09.391Z,52.10
2018-11-29T19:15:07.045Z,52.10
2018-11-29T19:18:10.570Z,52.20
2018-11-29T19:21:03.465Z,52.30
2018-11-29T19:24:00.169Z,52.20
2018-11-29T19:27:02.158Z,52.20
2018-11-29T19:29:55.906Z,52.20
2018-11-29T19:33:03.457Z,52.20
2018-11-29T19:36:01.644Z,52.10
2018-11-29T19:38:59.340Z,52.10
2018-11-29T19:41:56.874Z,52.30
2018-11-29T19:44:54.171Z,52.30
2018-11-29T19:47:51.942Z,52.40
2018-11-29T19:50:49.112Z,52.40
2018-11-29T19:53:47.124Z,52.50
2018-11-29T19:56:44.808Z,52.50
2018-11-29T19:59:42.276Z,52.50
2018-11-29T20:02:40.368Z,52.40
2018-11-29T20:05:44.361Z,52.60
2018-11-29T20:08:42.546Z,52.50
2018-11-29T20:11:39.594Z,52.60
2018-11-29T20:14:37.057Z,52.70
2018-11-29T20:17:34.664Z,52.80
2018-11-29T20:20:32.574Z,52.90
2018-11-29T20:23:29.807Z,52.80
2018-11-29T20:26:27.052Z,52.70
2018-11-29T20:29:24.507Z,52.80
2018-11-29T20:32:22.258Z,52.20
2018-11-29T20:35:19.795Z,52.90
2018-11-29T20:38:16.983Z,52.90
2018-11-29T20:41:16.884Z,52.90
2018-11-29T20:44:14.523Z,52.70
2018-11-29T20:47:11.918Z,52.90
2018-11-29T20:50:14.613Z,52.90
2018-11-29T20:53:07.896Z,52.90
2018-11-29T20:56:05.351Z,53.00
2018-11-29T20:59:02.262Z,52.90
2018-11-29T21:01:59.202Z,52.90
2018-11-29T21:05:05.439Z,53.00
2018-11-29T21:08:08.570Z,53.00
2018-11-29T21:11:06.399Z,53.20
2018-11-29T21:14:04.306Z,53.30
2018-11-29T21:17:05.132Z,53.10
2018-11-29T21:20:02.547Z,53.00
2018-11-29T21:23:00.945Z,53.10
2018-11-29T21:25:58.749Z,53.20
2018-11-29T21:28:55.711Z,53.20
2018-11-29T21:31:56.319Z,53.30
2018-11-29T21:34:53.735Z,53.20
2018-11-29T21:37:51.448Z,53.30
2018-11-29T21:40:53.191Z,53.20
2018-11-29T21:43:50.363Z,53.30
2018-11-29T21:46:48.310Z,53.20
2018-11-29T21:49:45.511Z,53.10
2018-11-29T21:52:43.639Z,53.30
2018-11-29T21:55:44.087Z,53.20
2018-11-29T21:58:40.993Z,53.20
2018-11-29T22:01:38.247Z,53.30
2018-11-29T22:04:35.802Z,53.30
2018-11-29T22:07:46.489Z,53.30
2018-11-29T22:10:48.489Z,53.30
2018-11-29T22:13:42.958Z,53.20
2018-11-29T22:16:41.037Z,53.40
2018-11-29T22:19:44.913Z,53.30
2018-11-29T22:22:39.602Z,53.40
2018-11-29T22:25:36.899Z,53.20
2018-11-29T22:28:34.921Z,53.30
2018-11-29T22:31:32.082Z,53.40
2018-11-29T22:34:29.829Z,53.40
2018-11-29T22:37:27.443Z,53.30
2018-11-29T22:40:25.142Z,53.30
2018-11-29T22:43:23.445Z,53.30
2018-11-29T22:46:21.180Z,53.30
2018-11-29T22:49:18.807Z,53.30
2018-11-29T22:52:16.724Z,53.30
2018-11-29T22:55:18.649Z,53.30
2018-11-29T22:58:16.643Z,53.20
2018-11-29T23:01:32.330Z,53.30
2018-11-29T23:04:30.102Z,53.10
2018-11-29T23:07:28.699Z,53.30
2018-11-29T23:10:31.682Z,53.10
2018-11-29T23:13:29.148Z,53.10
2018-11-29T23:16:26.293Z,53.00
2018-11-29T23:19:23.981Z,53.20
2018-11-29T23:22:21.259Z,53.20
2018-11-29T23:25:22.059Z,53.60
2018-11-29T23:28:19.621Z,53.30
2018-11-29T23:31:16.979Z,53.20
2018-11-29T23:34:14.378Z,53.30
2018-11-29T23:37:11.730Z,53.20
2018-11-29T23:40:08.938Z,53.20
2018-11-29T23:43:06.921Z,53.20
2018-11-29T23:46:04.070Z,52.90
2018-11-29T23:49:01.452Z,53.20
2018-11-29T23:51:59.055Z,53.30
2018-11-29T23:54:56.524Z,53.30
2018-11-29T23:57:54.138Z,53.20
